Chillicothe, Illinois
Current Conditions -  °F | °C
As of 11:55 AM on Thursday 30 Oct 2014 (Local Time) from KC75 Reporting Station
Overcast Overcast  
Wind Chill: 46°   Ceiling: 8000
Heat Index: 46°   Visibility: 10mi
Dew Point: 35°   Wind: 3mph
Humidity: 66%   Direction: 240°WSW
Pressure: 30.11"   Gusts: NA
Location:  40.92°N, 89.49°W
Report Text: KC75 301655Z AUTO 24003KT 10SM OVC080 08/02 A3011 RMK AO2 T00790019
Loading
Personal Weather Stations






























Interactive Weather Map New forecast layout! Learn more

10-Day Weather Forecast

Advertisements
Track Severe Weather on mobile